Time;durP1;ratioP1;P1;durP2;ratioP2;P2;SDS_P1;SDS_P2;PMS_P1;PMS_P2;Temp;Humidity;BMP_temperature;BMP_pressure;BME280_temperature;BME280_humidity;BME280_pressure;Samples;Min_cycle;Max_cycle;Signal;HPM_P1;HPM_P2
2023/01/27 00:00:07;;;;;;;32.13;18.85;;;;;;;;;;4945327;29;20033;-94
2023/01/27 00:02:33;;;;;;;33.60;19.20;;;;;;;;;;4945369;29;20046;-93
2023/01/27 00:04:59;;;;;;;30.52;17.65;;;;;;;;;;4945547;29;20074;-93
2023/01/27 00:07:25;;;;;;;32.72;18.23;;;;;;;;;;4945514;29;20066;-92
2023/01/27 00:09:51;;;;;;;37.45;19.15;;;;;;;;;;4950197;28;20114;-94
2023/01/27 00:15:05;;;;;;;32.55;18.60;;;;;;;;;;4967905;28;20123;-93
2023/01/27 00:17:38;;;;;;;31.13;18.60;;;;;;;;;;4946032;28;20024;-96
2023/01/27 00:20:04;;;;;;;31.10;18.35;;;;;;;;;;4964187;28;20050;-93
2023/01/27 00:25:21;;;;;;;33.40;18.60;;;;;;;;;;4981401;28;20049;-95
2023/01/27 00:27:47;;;;;;;29.35;16.73;;;;;;;;;;4963654;28;20034;-93
2023/01/27 00:30:13;;;;;;;29.45;17.25;;;;;;;;;;4981133;28;20410;-93
2023/01/27 00:35:24;;;;;;;29.65;17.80;;;;;;;;;;4981308;28;20037;-93
2023/01/27 00:37:50;;;;;;;31.05;17.98;;;;;;;;;;4981187;28;20027;-94
2023/01/27 00:40:17;;;;;;;30.25;17.27;;;;;;;;;;4981134;28;20019;-94
2023/01/27 00:45:50;;;;;;;31.77;16.75;;;;;;;;;;4981140;28;20148;-95
2023/01/27 00:48:22;;;;;;;32.63;17.60;;;;;;;;;;4981160;28;20107;-94
2023/01/27 00:50:49;;;;;;;29.52;17.23;;;;;;;;;;4980657;28;20118;-94
2023/01/27 00:53:22;;;;;;;32.25;18.63;;;;;;;;;;4963625;28;20034;-95
2023/01/27 00:55:48;;;;;;;28.50;17.48;;;;;;;;;;4962916;28;20418;-94
2023/01/27 01:01:17;;;;;;;30.77;17.08;;;;;;;;;;4980641;28;20123;-95
2023/01/27 01:03:44;;;;;;;32.45;19.92;;;;;;;;;;4979624;28;20114;-94
2023/01/27 01:06:11;;;;;;;30.75;18.02;;;;;;;;;;4980056;28;20436;-95
2023/01/27 01:08:37;;;;;;;27.30;16.38;;;;;;;;;;4963230;28;20030;-93
2023/01/27 01:11:08;;;;;;;29.27;17.75;;;;;;;;;;4980520;28;20026;-93
2023/01/27 01:13:35;;;;;;;28.52;16.88;;;;;;;;;;4980014;28;20114;-94
2023/01/27 01:16:08;;;;;;;30.88;17.70;;;;;;;;;;4979919;28;20023;-93
2023/01/27 01:18:41;;;;;;;30.40;17.48;;;;;;;;;;4979840;28;20027;-94
2023/01/27 01:21:08;;;;;;;32.88;18.80;;;;;;;;;;4980360;28;20035;-95
2023/01/27 01:23:42;;;;;;;29.02;17.02;;;;;;;;;;4979846;28;20027;-94
2023/01/27 01:26:10;;;;;;;32.50;18.02;;;;;;;;;;4979821;28;20153;-94
2023/01/27 01:28:36;;;;;;;27.58;16.13;;;;;;;;;;4962883;28;20322;-94
2023/01/27 01:31:09;;;;;;;31.27;17.27;;;;;;;;;;4961216;28;20046;-95
2023/01/27 01:33:35;;;;;;;29.20;17.27;;;;;;;;;;4979934;28;20038;-93
2023/01/27 01:36:05;;;;;;;28.95;17.30;;;;;;;;;;4962365;28;20034;-93
2023/01/27 01:38:31;;;;;;;36.58;18.55;;;;;;;;;;4978155;28;20027;-94
2023/01/27 01:40:57;;;;;;;36.55;20.02;;;;;;;;;;4979330;28;20026;-94
2023/01/27 01:46:27;;;;;;;40.83;19.67;;;;;;;;;;4969790;28;20058;-95
2023/01/27 01:49:13;;;;;;;48.75;22.65;;;;;;;;;;4979681;28;20030;-94
2023/01/27 01:51:54;;;;;;;39.35;19.88;;;;;;;;;;4979899;28;20418;-94
2023/01/27 01:54:28;;;;;;;47.22;22.02;;;;;;;;;;4979620;28;20022;-94
2023/01/27 01:59:59;;;;;;;46.30;21.42;;;;;;;;;;4971245;28;20038;-95
2023/01/27 02:02:25;;;;;;;37.78;19.48;;;;;;;;;;4979463;28;20043;-94
2023/01/27 02:04:54;;;;;;;35.63;18.33;;;;;;;;;;4962531;28;20114;-94
2023/01/27 02:07:24;;;;;;;39.17;20.10;;;;;;;;;;4979220;28;20069;-94
2023/01/27 02:09:50;;;;;;;35.30;19.10;;;;;;;;;;4962010;28;20333;-94
2023/01/27 02:21:35;;;;;;;29.48;17.33;;;;;;;;;;4979011;28;20038;-93
2023/01/27 02:24:11;;;;;;;31.75;18.42;;;;;;;;;;4979065;28;20018;-94
2023/01/27 02:26:43;;;;;;;27.83;16.10;;;;;;;;;;4964645;28;20054;-94
2023/01/27 02:29:11;;;;;;;32.40;16.90;;;;;;;;;;4979015;28;20037;-94
2023/01/27 02:31:37;;;;;;;28.80;16.70;;;;;;;;;;4977297;28;20413;-94
2023/01/27 02:34:05;;;;;;;28.08;17.17;;;;;;;;;;4961168;28;20343;-94
2023/01/27 02:36:34;;;;;;;29.40;16.38;;;;;;;;;;4978491;28;20378;-95
2023/01/27 02:39:01;;;;;;;32.50;17.83;;;;;;;;;;4979235;28;20042;-93
2023/01/27 02:41:38;;;;;;;27.80;16.10;;;;;;;;;;4961739;28;20113;-96
2023/01/27 02:44:04;;;;;;;28.75;15.55;;;;;;;;;;4961466;28;20045;-93
2023/01/27 02:46:31;;;;;;;27.20;15.45;;;;;;;;;;4975646;28;20027;-94
2023/01/27 02:49:04;;;;;;;28.50;15.82;;;;;;;;;;4962576;28;20045;-94
2023/01/27 02:51:30;;;;;;;25.83;14.85;;;;;;;;;;4978564;28;20142;-94
2023/01/27 02:53:56;;;;;;;27.95;15.45;;;;;;;;;;4978777;28;20023;-93
2023/01/27 02:56:28;;;;;;;24.95;15.15;;;;;;;;;;4978234;28;20031;-93
2023/01/27 02:58:55;;;;;;;26.20;15.70;;;;;;;;;;4978527;28;20027;-94
2023/01/27 03:01:21;;;;;;;27.67;16.38;;;;;;;;;;4967831;28;20078;-94
2023/01/27 03:03:47;;;;;;;27.40;15.75;;;;;;;;;;4959742;29;20028;-95
2023/01/27 03:06:14;;;;;;;26.23;15.52;;;;;;;;;;4959477;28;20066;-94
2023/01/27 03:08:40;;;;;;;27.73;15.93;;;;;;;;;;4978958;28;20322;-93
2023/01/27 03:11:06;;;;;;;30.50;16.70;;;;;;;;;;4978744;28;20097;-96
2023/01/27 03:13:32;;;;;;;33.15;17.63;;;;;;;;;;4978571;28;20031;-95
2023/01/27 03:18:48;;;;;;;27.92;16.20;;;;;;;;;;4978749;28;20050;-93
2023/01/27 03:21:27;;;;;;;27.15;16.02;;;;;;;;;;4978658;28;20027;-95
2023/01/27 03:23:53;;;;;;;30.75;17.88;;;;;;;;;;4961643;28;20078;-94
2023/01/27 03:26:29;;;;;;;29.05;16.20;;;;;;;;;;4962190;28;20030;-93
2023/01/27 03:31:45;;;;;;;27.25;15.07;;;;;;;;;;4980961;28;20223;-92
2023/01/27 03:34:11;;;;;;;31.85;17.50;;;;;;;;;;4982453;28;20034;-94
2023/01/27 03:47:36;;;;;;;25.10;14.02;;;;;;;;;;4981849;28;20050;-94
2023/01/27 04:19:20;;;;;;;27.13;15.27;;;;;;;;;;5003468;28;20049;-92
2023/01/27 04:33:45;;;;;;;24.35;15.02;;;;;;;;;;5001273;28;20052;-93
2023/01/27 04:36:11;;;;;;;24.92;15.02;;;;;;;;;;5000054;28;20034;-93
2023/01/27 04:38:37;;;;;;;29.02;16.63;;;;;;;;;;4982375;28;20117;-93
2023/01/27 04:41:04;;;;;;;24.40;14.90;;;;;;;;;;5000336;28;20026;-93
2023/01/27 04:43:30;;;;;;;29.25;15.75;;;;;;;;;;4981577;28;20022;-91
2023/01/27 04:45:56;;;;;;;24.75;15.02;;;;;;;;;;5000535;28;20368;-91
2023/01/27 04:48:22;;;;;;;24.10;15.43;;;;;;;;;;5000737;28;20070;-91
2023/01/27 04:50:48;;;;;;;26.48;15.70;;;;;;;;;;5000281;28;20030;-90
2023/01/27 04:53:23;;;;;;;23.70;14.60;;;;;;;;;;5000337;28;20027;-90
2023/01/27 04:55:49;;;;;;;25.30;15.23;;;;;;;;;;5000274;28;20027;-90
2023/01/27 04:58:24;;;;;;;25.98;14.43;;;;;;;;;;4999174;28;20034;-90
2023/01/27 05:00:50;;;;;;;24.88;15.02;;;;;;;;;;5000293;28;20039;-90
2023/01/27 05:03:16;;;;;;;27.90;15.57;;;;;;;;;;4982828;28;20034;-90
2023/01/27 05:05:42;;;;;;;28.48;17.00;;;;;;;;;;4982768;28;20030;-90
2023/01/27 05:08:09;;;;;;;37.25;18.88;;;;;;;;;;5000015;28;20030;-91
2023/01/27 05:10:36;;;;;;;27.88;16.20;;;;;;;;;;4982953;28;20038;-91
2023/01/27 05:13:02;;;;;;;26.95;16.85;;;;;;;;;;4999698;28;20294;-90
2023/01/27 05:15:28;;;;;;;32.15;18.70;;;;;;;;;;4999697;28;20026;-90
2023/01/27 05:17:54;;;;;;;34.47;19.00;;;;;;;;;;4999500;28;20126;-90
2023/01/27 05:20:20;;;;;;;35.45;20.63;;;;;;;;;;4999533;28;20023;-90
2023/01/27 05:23:33;;;;;;;34.35;19.90;;;;;;;;;;4999699;28;20026;-90
2023/01/27 05:25:43;;;;;;;29.63;17.10;;;;;;;;;;5012768;28;20077;-90
2023/01/27 05:28:15;;;;;;;34.70;19.85;;;;;;;;;;5001681;28;20034;-90
2023/01/27 05:30:42;;;;;;;34.42;19.30;;;;;;;;;;5019235;28;20025;-90
2023/01/27 05:33:09;;;;;;;33.55;19.52;;;;;;;;;;5001628;28;20038;-91
2023/01/27 05:35:36;;;;;;;28.83;16.80;;;;;;;;;;5018764;28;20416;-89
2023/01/27 05:38:02;;;;;;;37.58;20.33;;;;;;;;;;5018845;28;20029;-91
2023/01/27 05:40:28;;;;;;;27.05;16.55;;;;;;;;;;5001641;28;20046;-90
2023/01/27 05:42:54;;;;;;;29.25;16.63;;;;;;;;;;5001480;28;20026;-89
2023/01/27 05:45:20;;;;;;;27.50;16.67;;;;;;;;;;5001424;28;20041;-90
2023/01/27 05:47:51;;;;;;;27.92;16.73;;;;;;;;;;5001532;28;20029;-90
2023/01/27 05:50:18;;;;;;;31.10;19.27;;;;;;;;;;5001497;28;20029;-90
2023/01/27 05:52:54;;;;;;;31.98;19.90;;;;;;;;;;5001206;28;20037;-91
2023/01/27 05:55:20;;;;;;;31.98;17.83;;;;;;;;;;5018754;28;20026;-91
2023/01/27 05:57:46;;;;;;;28.00;17.20;;;;;;;;;;5001179;28;20022;-90
2023/01/27 06:00:21;;;;;;;26.13;16.63;;;;;;;;;;5001220;28;20030;-91
2023/01/27 06:02:47;;;;;;;30.10;17.92;;;;;;;;;;5001641;28;20037;-90
2023/01/27 06:05:14;;;;;;;32.17;18.55;;;;;;;;;;5000997;28;20030;-90
2023/01/27 06:07:40;;;;;;;28.73;18.25;;;;;;;;;;5018258;28;20431;-91
2023/01/27 06:10:06;;;;;;;27.00;17.38;;;;;;;;;;5001260;28;20376;-91
2023/01/27 06:12:32;;;;;;;26.38;16.42;;;;;;;;;;5018122;28;20029;-90
2023/01/27 06:14:59;;;;;;;27.02;16.10;;;;;;;;;;5018552;28;20068;-90
2023/01/27 06:17:25;;;;;;;26.58;16.90;;;;;;;;;;5018430;28;20030;-91
2023/01/27 06:19:51;;;;;;;25.95;16.95;;;;;;;;;;5018343;28;20022;-90
2023/01/27 06:22:18;;;;;;;26.42;16.73;;;;;;;;;;5000851;28;20136;-90
2023/01/27 06:36:28;;;;;;;34.22;18.63;;;;;;;;;;4999070;28;20349;-90
2023/01/27 06:49:59;;;;;;;29.70;17.33;;;;;;;;;;5000961;28;20053;-87
2023/01/27 07:04:35;;;;;;;30.73;18.85;;;;;;;;;;5037104;23;20150;-91
2023/01/27 07:07:02;;;;;;;34.08;18.77;;;;;;;;;;5002223;28;20026;-91
2023/01/27 07:09:28;;;;;;;35.72;20.25;;;;;;;;;;5002294;28;20026;-90
2023/01/27 07:11:54;;;;;;;35.45;19.90;;;;;;;;;;4985089;28;20121;-90
2023/01/27 07:14:22;;;;;;;35.03;19.67;;;;;;;;;;5001993;28;20030;-90
2023/01/27 07:16:49;;;;;;;38.15;21.65;;;;;;;;;;5002100;28;20085;-90
2023/01/27 07:19:15;;;;;;;44.45;24.63;;;;;;;;;;5001897;28;20365;-90
2023/01/27 07:21:42;;;;;;;157.48;63.42;;;;;;;;;;5001846;28;20074;-90
2023/01/27 07:26:56;;;;;;;50.03;28.60;;;;;;;;;;5044657;23;20062;-90
2023/01/27 07:29:22;;;;;;;57.85;30.90;;;;;;;;;;5001623;28;20433;-90
2023/01/27 07:31:48;;;;;;;54.70;30.25;;;;;;;;;;5001766;28;20026;-93
2023/01/27 07:36:59;;;;;;;46.17;26.67;;;;;;;;;;5002055;28;20084;-89
2023/01/27 07:42:13;;;;;;;62.90;30.83;;;;;;;;;;5050958;23;20440;-89
2023/01/27 07:52:55;;;;;;;47.05;27.95;;;;;;;;;;5048763;23;20058;-88
2023/01/27 08:10:00;;;;;;;45.88;26.00;;;;;;;;;;5057943;23;20106;-90
2023/01/27 08:12:35;;;;;;;51.45;27.25;;;;;;;;;;5001431;28;20038;-91
2023/01/27 08:15:02;;;;;;;49.05;29.20;;;;;;;;;;4983865;28;20129;-89
2023/01/27 08:17:28;;;;;;;53.13;30.00;;;;;;;;;;5000825;28;20027;-89
2023/01/27 08:19:56;;;;;;;49.03;27.88;;;;;;;;;;4983254;28;20038;-89
2023/01/27 08:22:22;;;;;;;48.00;28.00;;;;;;;;;;5000857;28;20105;-89
2023/01/27 08:24:49;;;;;;;50.47;27.48;;;;;;;;;;4990979;28;20030;-89
2023/01/27 08:27:15;;;;;;;47.35;27.63;;;;;;;;;;5020477;28;20026;-90
2023/01/27 08:29:41;;;;;;;47.20;27.42;;;;;;;;;;5020413;28;20026;-89
2023/01/27 08:32:07;;;;;;;53.75;29.60;;;;;;;;;;5020165;28;20034;-89
2023/01/27 08:34:35;;;;;;;51.28;28.25;;;;;;;;;;5002884;28;20301;-89
2023/01/27 08:37:01;;;;;;;49.00;26.77;;;;;;;;;;5002832;28;20062;-89
2023/01/27 08:39:27;;;;;;;40.17;24.55;;;;;;;;;;5002699;28;20030;-90
2023/01/27 08:41:53;;;;;;;44.78;24.95;;;;;;;;;;5020170;28;20042;-90
2023/01/27 08:44:19;;;;;;;46.97;25.45;;;;;;;;;;5020048;28;20101;-90
2023/01/27 08:46:45;;;;;;;53.63;29.15;;;;;;;;;;5019801;28;20064;-90
2023/01/27 08:49:13;;;;;;;49.78;27.92;;;;;;;;;;5019792;28;20030;-91
2023/01/27 08:51:39;;;;;;;52.72;29.73;;;;;;;;;;5019744;28;20029;-90
2023/01/27 08:54:06;;;;;;;55.15;31.80;;;;;;;;;;5019862;28;20104;-90
2023/01/27 08:56:32;;;;;;;82.80;40.33;;;;;;;;;;5019538;28;20393;-90
2023/01/27 08:58:58;;;;;;;58.42;33.80;;;;;;;;;;5019599;28;20041;-89
2023/01/27 09:01:25;;;;;;;52.75;30.58;;;;;;;;;;5002387;28;20037;-90
2023/01/27 09:03:51;;;;;;;60.42;33.35;;;;;;;;;;5019095;28;20053;-89
2023/01/27 09:06:17;;;;;;;58.95;31.67;;;;;;;;;;5002348;28;20021;-89
2023/01/27 09:08:43;;;;;;;78.40;39.88;;;;;;;;;;4998741;28;20034;-90
2023/01/27 09:11:11;;;;;;;58.35;32.40;;;;;;;;;;5000129;28;20031;-91
2023/01/27 09:13:37;;;;;;;48.10;27.30;;;;;;;;;;4999762;28;20413;-90
2023/01/27 09:16:03;;;;;;;47.92;26.50;;;;;;;;;;4999685;28;20105;-90
2023/01/27 09:18:29;;;;;;;54.25;28.42;;;;;;;;;;4999135;28;20038;-90
2023/01/27 09:20:55;;;;;;;54.92;28.52;;;;;;;;;;4999731;28;20035;-89
2023/01/27 09:23:21;;;;;;;55.08;30.80;;;;;;;;;;4999777;28;20090;-90
2023/01/27 09:28:32;;;;;;;44.92;25.65;;;;;;;;;;5000279;28;20442;-90
2023/01/27 09:31:00;;;;;;;51.75;28.40;;;;;;;;;;4999805;28;20067;-89
2023/01/27 09:33:26;;;;;;;48.17;27.67;;;;;;;;;;4998369;28;20042;-90
2023/01/27 09:35:56;;;;;;;46.00;26.92;;;;;;;;;;4998542;28;20405;-91
2023/01/27 09:38:22;;;;;;;48.33;27.70;;;;;;;;;;4998333;28;20078;-89
2023/01/27 09:41:10;;;;;;;51.03;27.55;;;;;;;;;;4999458;28;20356;-90
2023/01/27 10:05:16;;;;;;;45.00;24.80;;;;;;;;;;4999098;28;20440;-87
2023/01/27 10:07:50;;;;;;;42.03;24.13;;;;;;;;;;4999026;28;20325;-90
2023/01/27 10:10:28;;;;;;;39.85;22.52;;;;;;;;;;4997800;28;20341;-90
2023/01/27 10:27:43;;;;;;;45.53;25.25;;;;;;;;;;5041454;23;20113;-89
2023/01/27 10:33:18;;;;;;;46.63;25.45;;;;;;;;;;5046168;23;20448;-89
2023/01/27 10:38:58;;;;;;;37.60;22.25;;;;;;;;;;4998592;28;20336;-90
2023/01/27 10:53:47;;;;;;;54.25;28.92;;;;;;;;;;4998028;28;20093;-89
2023/01/27 11:19:45;;;;;;;38.35;22.33;;;;;;;;;;5023202;23;20069;-91
2023/01/27 11:34:32;;;;;;;43.17;26.45;;;;;;;;;;5040550;23;20468;-91
2023/01/27 11:36:59;;;;;;;46.03;27.58;;;;;;;;;;4998133;28;20034;-91
2023/01/27 11:39:26;;;;;;;70.03;37.13;;;;;;;;;;4980819;28;20030;-91
2023/01/27 11:47:31;;;;;;;45.80;28.08;;;;;;;;;;4999378;28;20045;-89
2023/01/27 11:49:58;;;;;;;44.72;26.65;;;;;;;;;;5001599;28;20050;-89
2023/01/27 12:47:30;;;;;;;40.08;22.58;;;;;;;;;;5022678;23;20381;-89
2023/01/27 13:01:56;;;;;;;35.78;21.23;;;;;;;;;;5005971;23;20159;-90
2023/01/27 13:04:25;;;;;;;38.03;22.45;;;;;;;;;;4980792;28;20023;-90
2023/01/27 13:06:51;;;;;;;38.97;21.75;;;;;;;;;;4981407;28;20031;-89
2023/01/27 13:20:53;;;;;;;38.60;21.17;;;;;;;;;;4989098;23;20070;-91
2023/01/27 13:26:26;;;;;;;37.00;22.23;;;;;;;;;;4980307;28;20081;-89
2023/01/27 13:52:46;;;;;;;36.25;20.27;;;;;;;;;;4980175;28;20050;-91
2023/01/27 14:30:58;;;;;;;37.05;21.48;;;;;;;;;;4995599;23;20054;-90
2023/01/27 14:36:31;;;;;;;40.92;23.05;;;;;;;;;;4979162;28;20459;-91
2023/01/27 14:42:15;;;;;;;43.15;22.65;;;;;;;;;;5008902;23;20101;-93
2023/01/27 15:09:44;;;;;;;33.70;20.42;;;;;;;;;;4959670;29;20038;-93
2023/01/27 15:18:51;;;;;;;41.42;20.80;;;;;;;;;;4959323;29;20326;-92
2023/01/27 15:21:32;;;;;;;43.25;24.02;;;;;;;;;;4958237;28;20446;-92
2023/01/27 15:24:07;;;;;;;43.92;25.50;;;;;;;;;;4963713;28;20424;-95
2023/01/27 15:26:35;;;;;;;48.38;26.13;;;;;;;;;;4982163;28;20057;-92
2023/01/27 15:29:02;;;;;;;38.78;23.45;;;;;;;;;;4982103;28;20034;-93
2023/01/27 15:31:29;;;;;;;44.10;25.38;;;;;;;;;;4981272;28;20421;-92
2023/01/27 15:34:04;;;;;;;37.25;21.85;;;;;;;;;;4982137;28;20031;-92
2023/01/27 15:36:33;;;;;;;39.58;22.58;;;;;;;;;;4978113;28;20030;-91
2023/01/27 15:39:18;;;;;;;35.05;21.85;;;;;;;;;;4963332;29;20023;-92
2023/01/27 15:42:04;;;;;;;38.17;22.95;;;;;;;;;;4970114;28;20022;-94
2023/01/27 15:47:34;;;;;;;41.58;23.65;;;;;;;;;;4982746;28;20034;-94
2023/01/27 15:50:11;;;;;;;46.97;24.65;;;;;;;;;;4982849;28;20025;-93
2023/01/27 15:52:48;;;;;;;48.13;26.00;;;;;;;;;;4981986;28;20031;-92
2023/01/27 15:55:31;;;;;;;39.83;22.33;;;;;;;;;;4980010;28;20023;-92
2023/01/27 15:58:17;;;;;;;41.70;21.67;;;;;;;;;;4981153;28;20118;-92
2023/01/27 16:00:49;;;;;;;37.63;20.95;;;;;;;;;;4969776;28;20019;-93
2023/01/27 16:03:21;;;;;;;40.72;21.30;;;;;;;;;;4980758;28;20054;-93
2023/01/27 16:05:50;;;;;;;36.38;20.23;;;;;;;;;;4980607;28;20031;-92
2023/01/27 16:08:17;;;;;;;31.88;18.38;;;;;;;;;;4981431;28;20034;-91
2023/01/27 16:10:44;;;;;;;34.63;19.13;;;;;;;;;;4980431;28;20066;-92
2023/01/27 16:13:26;;;;;;;39.67;20.02;;;;;;;;;;4980454;28;20030;-92
2023/01/27 16:16:12;;;;;;;42.78;20.40;;;;;;;;;;4970604;28;20027;-92
2023/01/27 16:18:47;;;;;;;38.80;20.20;;;;;;;;;;4981091;28;20477;-92
2023/01/27 16:21:32;;;;;;;32.40;18.10;;;;;;;;;;4979864;28;20130;-91
2023/01/27 16:24:01;;;;;;;92.85;37.75;;;;;;;;;;4980214;28;20113;-92
2023/01/27 16:26:51;;;;;;;112.43;45.42;;;;;;;;;;4980543;28;20447;-92
2023/01/27 16:29:25;;;;;;;79.43;38.42;;;;;;;;;;4981351;28;20122;-92
2023/01/27 16:31:52;;;;;;;96.13;41.17;;;;;;;;;;4976350;28;20058;-91
2023/01/27 16:34:28;;;;;;;83.07;41.72;;;;;;;;;;4976941;28;20469;-92
2023/01/27 16:37:02;;;;;;;80.93;39.88;;;;;;;;;;4980204;28;20030;-92
2023/01/27 16:39:38;;;;;;;48.05;28.40;;;;;;;;;;4971186;28;20118;-94
2023/01/27 16:42:04;;;;;;;82.57;41.28;;;;;;;;;;4972822;28;20362;-92
2023/01/27 16:47:50;;;;;;;134.02;51.28;;;;;;;;;;4971154;28;20066;-92
2023/01/27 16:53:22;;;;;;;152.93;59.13;;;;;;;;;;4981355;28;20078;-92
2023/01/27 17:01:47;;;;;;;96.30;47.85;;;;;;;;;;4983714;28;20077;-93
2023/01/27 17:04:26;;;;;;;86.20;42.83;;;;;;;;;;4979948;28;20134;-93
2023/01/27 17:06:55;;;;;;;75.45;37.88;;;;;;;;;;4980449;28;20030;-94
2023/01/27 17:09:22;;;;;;;74.80;35.22;;;;;;;;;;4964296;28;20031;-93
2023/01/27 17:11:48;;;;;;;81.65;39.85;;;;;;;;;;4979737;28;20031;-93
2023/01/27 17:14:14;;;;;;;89.32;45.08;;;;;;;;;;4979235;28;20042;-88
2023/01/27 17:16:45;;;;;;;77.28;36.97;;;;;;;;;;4980292;28;20035;-92
2023/01/27 17:19:26;;;;;;;91.32;44.67;;;;;;;;;;4979814;28;20058;-91
2023/01/27 17:22:00;;;;;;;77.22;41.28;;;;;;;;;;4979043;28;20035;-92
2023/01/27 17:24:26;;;;;;;74.25;41.03;;;;;;;;;;4979946;28;20034;-92
2023/01/27 17:27:10;;;;;;;54.67;31.70;;;;;;;;;;4980345;28;20031;-91
2023/01/27 17:29:38;;;;;;;64.35;35.38;;;;;;;;;;4980248;28;20417;-92
2023/01/27 17:32:16;;;;;;;67.55;37.30;;;;;;;;;;4979588;28;20031;-91
2023/01/27 17:34:42;;;;;;;65.72;35.70;;;;;;;;;;4960869;29;20023;-91
2023/01/27 17:37:16;;;;;;;67.20;37.28;;;;;;;;;;4959689;29;20055;-93
2023/01/27 17:39:42;;;;;;;77.95;44.28;;;;;;;;;;4976037;28;20023;-92
2023/01/27 17:42:18;;;;;;;70.30;39.28;;;;;;;;;;4979911;28;20074;-93
2023/01/27 17:48:02;;;;;;;112.63;40.45;;;;;;;;;;4979800;28;20086;-92
2023/01/27 19:40:41;;;;;;;36.88;22.13;;;;;;;;;;4943362;29;20059;-93
2023/01/27 19:43:09;;;;;;;44.95;23.70;;;;;;;;;;4950739;29;20024;-93
2023/01/27 19:45:35;;;;;;;43.72;24.30;;;;;;;;;;4925800;29;20032;-94
2023/01/27 20:02:38;;;;;;;47.40;24.67;;;;;;;;;;5073872;23;20122;-96
2023/01/27 20:18:24;;;;;;;89.28;51.92;;;;;;;;;;5077656;23;20079;-94
2023/01/27 20:20:51;;;;;;;63.88;39.17;;;;;;;;;;4970493;29;20044;-95
2023/01/27 20:23:18;;;;;;;60.65;31.95;;;;;;;;;;4971309;29;20523;-95
2023/01/27 20:39:53;;;;;;;54.30;32.67;;;;;;;;;;4966243;23;20083;-94
2023/01/27 20:42:20;;;;;;;65.70;36.58;;;;;;;;;;4943146;29;20046;-95
2023/01/27 20:44:46;;;;;;;54.65;32.22;;;;;;;;;;4946047;29;20330;-94
2023/01/27 20:50:20;;;;;;;51.85;31.70;;;;;;;;;;4959865;23;20197;-95
2023/01/27 20:55:32;;;;;;;60.25;37.58;;;;;;;;;;4906949;29;20048;-94
2023/01/27 21:03:41;;;;;;;63.53;36.95;;;;;;;;;;4963758;23;20102;-93
2023/01/27 21:06:08;;;;;;;63.78;36.63;;;;;;;;;;4922919;29;20036;-94
2023/01/27 21:08:34;;;;;;;67.10;35.42;;;;;;;;;;4922675;29;20067;-94
2023/01/27 21:11:00;;;;;;;59.78;33.28;;;;;;;;;;4923365;29;20028;-93
2023/01/27 21:34:00;;;;;;;56.47;30.00;;;;;;;;;;5030060;23;20047;-93
2023/01/27 21:39:11;;;;;;;59.13;30.83;;;;;;;;;;4967902;23;20062;-94
2023/01/27 21:52:42;;;;;;;55.17;29.88;;;;;;;;;;5032381;23;20367;-94
2023/01/27 21:55:10;;;;;;;60.80;29.92;;;;;;;;;;4947414;29;20047;-94
2023/01/27 21:57:36;;;;;;;56.13;31.70;;;;;;;;;;4964099;29;20082;-93
2023/01/27 22:00:04;;;;;;;52.13;27.33;;;;;;;;;;4960706;29;20410;-94
2023/01/27 22:05:26;;;;;;;49.67;26.45;;;;;;;;;;4972982;23;20086;-94
2023/01/27 22:13:22;;;;;;;52.72;28.60;;;;;;;;;;4923473;29;20046;-94
2023/01/27 22:15:49;;;;;;;62.05;31.48;;;;;;;;;;4921048;29;20052;-93
2023/01/27 22:21:19;;;;;;;91.53;37.58;;;;;;;;;;4903617;29;20051;-94
2023/01/27 22:23:46;;;;;;;96.97;42.90;;;;;;;;;;4902143;29;20029;-93
2023/01/27 22:26:13;;;;;;;62.50;32.08;;;;;;;;;;4916674;29;20112;-94
2023/01/27 22:28:39;;;;;;;53.78;29.48;;;;;;;;;;4901746;29;20036;-94
2023/01/27 22:31:05;;;;;;;58.63;30.20;;;;;;;;;;4901846;29;20037;-95
2023/01/27 22:33:31;;;;;;;59.95;33.28;;;;;;;;;;4902748;29;20226;-93
2023/01/27 22:36:09;;;;;;;52.33;29.23;;;;;;;;;;4919558;29;20081;-94
2023/01/27 22:38:38;;;;;;;51.95;28.50;;;;;;;;;;4886165;29;20332;-94
2023/01/27 22:41:05;;;;;;;52.65;27.23;;;;;;;;;;4908885;29;20051;-95
2023/01/27 22:43:31;;;;;;;53.80;30.10;;;;;;;;;;4904733;29;20036;-94
2023/01/27 22:46:01;;;;;;;70.25;37.97;;;;;;;;;;4904843;29;20067;-94
2023/01/27 23:36:22;;;;;;;47.88;27.25;;;;;;;;;;5277969;23;20054;-95
2023/01/27 23:38:48;;;;;;;53.85;26.80;;;;;;;;;;4969506;29;20039;-95
2023/01/27 23:41:17;;;;;;;50.92;28.08;;;;;;;;;;4952204;29;20031;-95
2023/01/27 23:49:23;;;;;;;51.00;28.33;;;;;;;;;;5036218;23;20146;-96
2023/01/27 23:51:49;;;;;;;49.65;25.65;;;;;;;;;;4967219;29;20027;-96
2023/01/27 23:54:15;;;;;;;46.03;26.17;;;;;;;;;;4951761;29;20039;-94
2023/01/27 23:59:23;;;;;;;51.83;29.17;;;;;;;;;;5926629;23;20116;-96
